Time;durP1;ratioP1;P1;durP2;ratioP2;P2;SDS_P1;SDS_P2;PMS_P1;PMS_P2;Temp;Humidity;BMP_temperature;BMP_pressure;BME280_temperature;BME280_humidity;BME280_pressure;Samples;Min_cycle;Max_cycle;Signal;HPM_P1;HPM_P2
2023/05/01 00:00:48;;;;;;;15.20;9.45;;;;;;;14.08;100.00;101140.03;2094445;28;20106;-75
2023/05/01 00:02:11;;;;;;;12.25;9.23;;;;;;;14.06;100.00;101136.47;2108463;28;20047;-75
2023/05/01 00:03:32;;;;;;;10.80;8.77;;;;;;;14.06;100.00;101141.78;2105294;28;20055;-74
2023/05/01 00:04:55;;;;;;;15.20;8.77;;;;;;;14.04;100.00;101141.78;2111115;28;20130;-75
2023/05/01 00:06:16;;;;;;;10.48;8.23;;;;;;;14.04;100.00;101135.59;2105664;28;20699;-75
2023/05/01 00:07:40;;;;;;;10.63;8.10;;;;;;;14.02;100.00;101138.22;2096406;28;20066;-74
2023/05/01 00:09:02;;;;;;;11.52;8.63;;;;;;;13.98;100.00;101140.84;2100081;28;20496;-75
2023/05/01 00:10:24;;;;;;;10.27;7.75;;;;;;;13.95;100.00;101141.72;2097312;28;20047;-75
2023/05/01 00:11:46;;;;;;;10.63;7.82;;;;;;;13.91;100.00;101147.88;2094861;28;20044;-75
2023/05/01 00:13:08;;;;;;;9.80;7.50;;;;;;;13.86;100.00;101146.94;2085893;28;20491;-75
2023/05/01 00:14:31;;;;;;;;;;;;;;;13.80;100.00;101150.44;2092431;28;20098;-74
2023/05/01 00:15:52;;;;;;;12.10;8.50;;;;;;;13.75;100.00;101140.66;2093979;28;19971;-75
2023/05/01 00:17:15;;;;;;;9.95;7.65;;;;;;;13.77;100.00;101144.22;2085942;28;20053;-75
2023/05/01 00:18:38;;;;;;;11.45;7.53;;;;;;;13.79;100.00;101145.09;2094878;28;20484;-74
2023/05/01 00:20:00;;;;;;;12.82;7.88;;;;;;;13.74;100.00;101141.53;2096455;28;20041;-76
2023/05/01 00:21:22;;;;;;;10.55;8.38;;;;;;;13.71;100.00;101142.41;2100025;28;20078;-76
2023/05/01 00:22:47;;;;;;;11.30;8.20;;;;;;;13.74;100.00;101149.47;2102541;28;20051;-76
2023/05/01 00:24:09;;;;;;;13.10;9.15;;;;;;;13.77;100.00;101152.19;2100402;28;20047;-76
2023/05/01 00:25:32;;;;;;;12.70;9.00;;;;;;;13.79;100.00;101142.44;2101530;28;20044;-76
2023/05/01 00:26:55;;;;;;;12.00;9.13;;;;;;;13.82;100.00;101142.50;2109543;28;20065;-76
2023/05/01 00:28:17;;;;;;;15.27;9.10;;;;;;;13.83;100.00;101136.31;2102647;28;20614;-76
2023/05/01 00:29:39;;;;;;;;;;;;;;;13.80;100.00;101130.97;2092077;28;20044;-76
2023/05/01 00:31:02;;;;;;;12.95;9.20;;;;;;;13.78;100.00;101135.38;2091689;28;19920;-76
2023/05/01 00:32:24;;;;;;;10.93;8.27;;;;;;;13.79;100.00;101134.50;2091851;28;20120;-76
2023/05/01 00:33:47;;;;;;;12.02;8.73;;;;;;;13.80;100.00;101134.50;2091636;28;20053;-76
2023/05/01 00:35:09;;;;;;;10.68;8.60;;;;;;;13.80;100.00;101129.19;2097713;28;20098;-76
2023/05/01 00:36:32;;;;;;;13.20;8.70;;;;;;;13.81;100.00;101132.75;2119559;27;20035;-76
2023/05/01 00:37:55;;;;;;;11.63;8.75;;;;;;;13.80;100.00;101130.97;2105411;28;20101;-76
2023/05/01 00:39:18;;;;;;;12.13;7.80;;;;;;;13.76;100.00;101131.81;2110897;28;20134;-75
2023/05/01 00:40:42;;;;;;;11.55;8.80;;;;;;;13.73;100.00;101126.47;2102480;28;20479;-76
2023/05/01 00:42:05;;;;;;;12.02;8.85;;;;;;;13.70;100.00;101119.41;2100551;28;20054;-75
2023/05/01 00:43:26;;;;;;;11.55;8.40;;;;;;;13.71;100.00;101128.25;2099790;28;20097;-76
2023/05/01 00:44:49;;;;;;;11.27;8.85;;;;;;;13.70;100.00;101127.34;2090968;28;20576;-76
2023/05/01 00:46:10;;;;;;;11.02;8.55;;;;;;;13.69;100.00;101127.34;2090974;28;20048;-76
2023/05/01 00:47:33;;;;;;;11.07;9.02;;;;;;;13.66;100.00;101127.28;2094277;28;20049;-76
2023/05/01 00:48:56;;;;;;;13.20;9.00;;;;;;;13.66;100.00;101135.25;2093312;28;20103;-76
2023/05/01 00:50:19;;;;;;;12.25;8.85;;;;;;;13.66;100.00;101132.59;2102695;28;20052;-76
2023/05/01 00:51:42;;;;;;;12.23;9.05;;;;;;;13.67;100.00;101139.69;2099794;28;20070;-76
2023/05/01 00:53:07;;;;;;;10.82;8.32;;;;;;;13.69;100.00;101132.66;2102468;28;20108;-75
2023/05/01 00:54:28;;;;;;;9.57;7.97;;;;;;;13.70;100.00;101131.78;2100155;28;20488;-75
2023/05/01 00:55:51;;;;;;;11.27;8.85;;;;;;;13.70;100.00;101129.13;2099660;28;20051;-75
2023/05/01 00:57:12;;;;;;;11.43;8.70;;;;;;;13.69;100.00;101132.66;2102218;28;20048;-76
2023/05/01 00:58:35;;;;;;;12.30;8.93;;;;;;;13.65;100.00;101134.41;2107961;28;20105;-76
2023/05/01 00:59:56;;;;;;;12.73;8.18;;;;;;;13.65;100.00;101136.16;2110625;28;20040;-76
2023/05/01 01:01:19;;;;;;;12.38;7.93;;;;;;;13.65;100.00;101137.06;2101430;28;20048;-75
2023/05/01 01:02:42;;;;;;;12.85;7.65;;;;;;;13.65;100.00;101139.69;2099291;28;20488;-75
2023/05/01 01:04:03;;;;;;;10.57;7.53;;;;;;;13.66;100.00;101136.16;2099659;28;20056;-75
2023/05/01 01:05:31;;;;;;;9.60;6.90;;;;;;;13.68;100.00;101144.13;2093386;28;20048;-75
2023/05/01 01:07:08;;;;;;;10.80;7.60;;;;;;;13.69;100.00;101144.16;2101350;28;20050;-75
2023/05/01 01:08:38;;;;;;;10.32;7.78;;;;;;;13.69;100.00;101141.50;2096151;28;20048;-75
2023/05/01 01:10:13;;;;;;;10.52;7.45;;;;;;;13.70;100.00;101142.38;2093361;28;20067;-76
2023/05/01 01:11:43;;;;;;;9.57;6.50;;;;;;;13.68;100.00;101141.47;2109239;28;20047;-75
2023/05/01 01:13:14;;;;;;;9.05;6.47;;;;;;;13.69;100.00;101143.25;2097757;28;20123;-75
2023/05/01 01:14:43;;;;;;;9.77;6.47;;;;;;;13.70;100.00;101142.38;2105669;28;20048;-75
2023/05/01 01:16:12;;;;;;;10.55;6.63;;;;;;;13.72;100.00;101144.16;2103428;28;20155;-76
2023/05/01 01:17:47;;;;;;;9.90;6.35;;;;;;;13.70;100.00;101140.63;2109916;28;20051;-76
2023/05/01 01:19:32;;;;;;;9.00;6.82;;;;;;;13.67;100.00;101137.03;2103858;28;20040;-75
2023/05/01 01:21:01;;;;;;;11.52;7.65;;;;;;;13.62;100.00;101136.13;2092257;28;20062;-75
2023/05/01 01:22:23;;;;;;;10.00;7.13;;;;;;;13.61;100.00;101135.22;2093015;28;20051;-75
2023/05/01 01:24:34;;;;;;;12.65;6.72;;;;;;;13.62;100.00;101134.34;2094002;28;20048;-75
2023/05/01 01:26:21;;;;;;;9.73;6.88;;;;;;;13.61;100.00;101124.59;2091631;28;20612;-75
2023/05/01 01:28:17;;;;;;;11.25;6.97;;;;;;;13.62;100.00;101131.69;2103587;28;20464;-75
2023/05/01 01:30:01;;;;;;;9.50;7.07;;;;;;;13.61;100.00;101127.25;2095920;28;20094;-75
2023/05/01 01:31:33;;;;;;;11.10;7.43;;;;;;;13.59;100.00;101126.34;2103942;28;20047;-75
2023/05/01 01:33:39;;;;;;;9.15;6.57;;;;;;;13.59;100.00;101126.34;2104671;28;20491;-75
2023/05/01 01:35:06;;;;;;;11.30;7.25;;;;;;;13.56;100.00;101126.34;2069906;28;20042;-76
2023/05/01 01:36:39;;;;;;;10.95;6.43;;;;;;;13.57;100.00;101122.81;2096242;28;20040;-76
2023/05/01 01:38:02;;;;;;;;;;;;;;;13.52;100.00;101122.75;2102723;28;20040;-75
2023/05/01 01:39:36;;;;;;;9.73;7.25;;;;;;;13.52;100.00;101132.50;2104666;28;19920;-76
2023/05/01 01:41:09;;;;;;;12.32;7.03;;;;;;;13.51;100.00;101128.06;2096292;28;20092;-75
2023/05/01 01:42:37;;;;;;;10.98;5.93;;;;;;;13.51;100.00;101136.91;2094506;28;20044;-76
2023/05/01 01:44:03;;;;;;;11.05;5.55;;;;;;;13.50;100.00;101128.94;2100072;28;20074;-75
2023/05/01 01:45:30;;;;;;;8.55;6.05;;;;;;;13.51;100.00;101139.56;2101936;28;20251;-75
2023/05/01 01:46:54;;;;;;;10.15;6.75;;;;;;;13.51;100.00;101136.91;2092760;28;20396;-75
2023/05/01 01:48:26;;;;;;;9.23;6.45;;;;;;;13.52;100.00;101138.66;2093322;28;20067;-75
2023/05/01 01:49:51;;;;;;;11.38;7.03;;;;;;;13.52;100.00;101135.16;2100707;28;20126;-75
2023/05/01 01:51:18;;;;;;;12.02;6.68;;;;;;;13.47;100.00;101136.84;2093854;28;20056;-75
2023/05/01 01:52:42;;;;;;;11.45;6.60;;;;;;;13.45;100.00;101133.31;2100439;28;20048;-75
2023/05/01 01:54:04;;;;;;;10.18;5.82;;;;;;;13.45;100.00;101133.31;2093564;28;20057;-75
2023/05/01 01:55:30;;;;;;;11.13;5.93;;;;;;;13.46;100.00;101128.00;2091117;28;20107;-75
2023/05/01 01:56:54;;;;;;;11.45;5.38;;;;;;;13.48;100.00;101133.31;2091921;28;20054;-75
2023/05/01 01:58:18;;;;;;;9.30;5.55;;;;;;;13.50;100.00;101137.78;2090591;28;20540;-75
2023/05/01 01:59:42;;;;;;;8.38;4.97;;;;;;;13.52;100.00;101130.72;2106364;28;20136;-75
2023/05/01 02:01:06;;;;;;;7.63;4.60;;;;;;;13.54;100.00;101134.28;2102089;28;20156;-75
2023/05/01 02:02:30;;;;;;;9.93;4.43;;;;;;;13.56;100.00;101135.19;2093786;28;20048;-75
2023/05/01 02:03:54;;;;;;;6.63;4.40;;;;;;;13.59;100.00;101138.75;2099631;28;20076;-76
2023/05/01 02:05:19;;;;;;;9.02;4.57;;;;;;;13.62;100.00;101133.47;2096376;28;20051;-76
2023/05/01 02:06:43;;;;;;;9.40;4.88;;;;;;;13.63;100.00;101132.59;2108695;28;20059;-76
2023/05/01 02:08:07;;;;;;;9.48;5.10;;;;;;;13.65;100.00;101130.84;2095079;28;20498;-76
2023/05/01 02:09:30;;;;;;;11.68;5.80;;;;;;;13.65;100.00;101131.75;2090690;28;20115;-75
2023/05/01 02:10:58;;;;;;;9.75;5.78;;;;;;;13.65;100.00;101120.25;2090245;28;20052;-76
2023/05/01 02:12:22;;;;;;;9.90;5.80;;;;;;;13.62;100.00;101120.19;2094360;28;20070;-76
2023/05/01 02:13:45;;;;;;;10.35;5.70;;;;;;;13.57;100.00;101129.00;2094173;28;20120;-75
2023/05/01 02:15:10;;;;;;;8.98;5.25;;;;;;;13.55;100.00;101124.56;2093339;28;20040;-75
2023/05/01 02:16:33;;;;;;;8.55;5.30;;;;;;;13.53;100.00;101124.53;2085864;28;20564;-76
2023/05/01 02:17:56;;;;;;;8.23;5.63;;;;;;;13.50;100.00;101119.22;2084988;28;20048;-75
2023/05/01 02:19:20;;;;;;;8.20;4.93;;;;;;;13.51;100.00;101126.31;2092615;28;20405;-76
2023/05/01 02:20:43;;;;;;;8.95;4.18;;;;;;;13.54;100.00;101126.31;2095517;28;20103;-75
2023/05/01 02:22:09;;;;;;;6.95;4.80;;;;;;;13.59;100.00;101131.66;2092072;28;20170;-74
2023/05/01 02:23:32;;;;;;;7.10;4.75;;;;;;;13.64;100.00;101118.47;2099131;28;20044;-74
2023/05/01 02:24:57;;;;;;;10.93;5.13;;;;;;;13.63;100.00;101133.47;2110332;28;20044;-75
2023/05/01 02:26:23;;;;;;;8.10;4.55;;;;;;;13.65;100.00;101131.75;2103993;28;20438;-74
2023/05/01 02:27:50;;;;;;;7.40;5.45;;;;;;;13.65;100.00;101133.50;2101293;28;20135;-75
2023/05/01 02:29:11;;;;;;;8.88;5.15;;;;;;;13.64;100.00;101135.25;2096299;28;20051;-75
2023/05/01 02:30:33;;;;;;;7.43;4.97;;;;;;;13.62;100.00;101137.00;2106763;28;20379;-75
2023/05/01 02:31:55;;;;;;;8.68;5.07;;;;;;;13.63;100.00;101136.13;2104985;28;20073;-75
2023/05/01 02:33:17;;;;;;;8.60;4.75;;;;;;;13.65;100.00;101134.41;2094223;28;20447;-75
2023/05/01 02:34:38;;;;;;;8.82;4.68;;;;;;;13.65;100.00;101137.06;2091935;28;20143;-75
2023/05/01 02:36:01;;;;;;;9.68;4.63;;;;;;;13.66;100.00;101138.81;2092193;28;20045;-74
2023/05/01 02:37:26;;;;;;;8.10;4.50;;;;;;;13.68;100.00;101128.22;2085862;28;20045;-76
2023/05/01 02:38:49;;;;;;;7.68;4.65;;;;;;;13.69;100.00;101137.94;2094819;28;20049;-76
2023/05/01 02:40:13;;;;;;;9.75;4.78;;;;;;;13.70;100.00;101130.00;2093703;28;20095;-76
2023/05/01 02:41:38;;;;;;;8.15;4.60;;;;;;;13.73;100.00;101129.13;2092817;28;20261;-75
2023/05/01 02:43:05;;;;;;;9.93;5.03;;;;;;;13.74;100.00;101125.59;2088020;28;20066;-75
2023/05/01 02:44:29;;;;;;;8.93;5.15;;;;;;;13.75;100.00;101127.38;2101990;28;20059;-75
2023/05/01 02:45:53;;;;;;;8.88;5.30;;;;;;;13.77;100.00;101123.00;2090289;28;20540;-75
2023/05/01 02:47:20;;;;;;;8.55;5.43;;;;;;;13.78;100.00;101128.31;2095569;28;20121;-75
2023/05/01 02:48:42;;;;;;;9.65;5.05;;;;;;;13.77;100.00;101131.84;2087384;28;20138;-75
2023/05/01 02:50:05;;;;;;;7.63;4.70;;;;;;;13.78;100.00;101130.09;2092096;28;20516;-75
2023/05/01 02:51:30;;;;;;;10.40;4.82;;;;;;;13.78;100.00;101133.63;2089600;28;20056;-75
2023/05/01 02:52:55;;;;;;;10.80;5.20;;;;;;;13.79;100.00;101127.41;2092582;28;20036;-75
2023/05/01 02:54:31;;;;;;;8.10;3.88;;;;;;;13.80;100.00;101134.50;2096886;28;20048;-75
2023/05/01 02:55:54;;;;;;;8.38;4.53;;;;;;;13.81;100.00;101127.44;2086664;28;20481;-75
2023/05/01 02:57:19;;;;;;;7.30;4.80;;;;;;;13.84;100.00;101130.13;2099614;28;20934;-75
2023/05/01 02:58:43;;;;;;;6.63;4.50;;;;;;;13.82;100.00;101130.09;2094430;28;20115;-75
2023/05/01 03:00:08;;;;;;;7.70;4.68;;;;;;;13.79;100.00;101129.19;2088794;28;20068;-75
2023/05/01 03:01:29;;;;;;;10.70;5.32;;;;;;;13.75;100.00;101120.31;2092538;28;20044;-75
2023/05/01 03:02:51;;;;;;;7.72;4.63;;;;;;;13.77;100.00;101126.53;2086787;28;20049;-75
2023/05/01 03:04:14;;;;;;;8.15;4.88;;;;;;;13.81;100.00;101124.78;2083874;28;20681;-75
2023/05/01 03:05:37;;;;;;;7.90;4.65;;;;;;;13.83;100.00;101133.66;2095780;28;20852;-75
2023/05/01 03:06:59;;;;;;;8.23;4.80;;;;;;;13.86;100.00;101133.66;2104665;28;20064;-75
2023/05/01 03:08:22;;;;;;;7.45;4.78;;;;;;;13.88;100.00;101129.25;2092604;28;20123;-75
2023/05/01 03:09:45;;;;;;;6.88;4.55;;;;;;;13.89;100.00;101136.34;2092553;28;20055;-75
2023/05/01 03:11:07;;;;;;;12.23;5.22;;;;;;;13.91;100.00;101142.56;2099047;28;20081;-75
2023/05/01 03:12:29;;;;;;;8.27;5.05;;;;;;;13.93;100.00;101138.16;2094937;28;20139;-75
2023/05/01 03:13:52;;;;;;;11.88;5.07;;;;;;;13.95;100.00;101139.06;2092684;28;20068;-75
2023/05/01 03:15:14;;;;;;;7.57;4.82;;;;;;;13.95;100.00;101139.06;2100429;28;20055;-75
2023/05/01 03:16:36;;;;;;;8.45;4.93;;;;;;;13.93;100.00;101143.44;2103772;28;20051;-75
2023/05/01 03:17:57;;;;;;;9.40;5.10;;;;;;;13.92;100.00;101144.31;2097245;28;20059;-75
2023/05/01 03:19:19;;;;;;;8.35;4.82;;;;;;;13.90;100.00;101147.00;2101675;28;20453;-75
2023/05/01 03:20:51;;;;;;;8.80;4.85;;;;;;;13.88;100.00;101147.84;2102138;28;20454;-75
2023/05/01 03:22:13;;;;;;;9.38;4.70;;;;;;;13.85;100.00;101146.03;2096060;28;20053;-75
2023/05/01 03:23:37;;;;;;;7.07;4.10;;;;;;;13.88;100.00;101153.16;2091771;28;20571;-75
2023/05/01 03:25:00;;;;;;;7.20;3.90;;;;;;;13.88;100.00;101151.38;2099497;28;20127;-75
2023/05/01 03:26:22;;;;;;;10.95;4.13;;;;;;;13.88;100.00;101156.69;2086485;28;20072;-75
2023/05/01 03:27:44;;;;;;;8.63;4.22;;;;;;;13.91;100.00;101154.06;2092533;28;20071;-75
2023/05/01 03:29:07;;;;;;;6.40;3.65;;;;;;;13.92;100.00;101158.47;2092699;28;20051;-75
2023/05/01 03:30:29;;;;;;;7.75;4.03;;;;;;;13.94;100.00;101153.19;2094266;28;20036;-75
2023/05/01 03:31:52;;;;;;;7.32;4.25;;;;;;;13.95;100.00;101158.53;2091925;28;20052;-75
2023/05/01 03:33:14;;;;;;;7.03;4.25;;;;;;;14.01;100.00;101156.78;2106801;28;20056;-74
2023/05/01 03:34:37;;;;;;;8.85;4.40;;;;;;;14.05;100.00;101159.47;2095942;28;20472;-75
2023/05/01 03:35:59;;;;;;;8.00;4.93;;;;;;;14.08;100.00;101159.50;2108873;28;20446;-74
2023/05/01 03:37:22;;;;;;;13.18;4.90;;;;;;;14.13;100.00;101159.53;2089127;28;20077;-75
2023/05/01 03:38:46;;;;;;;10.05;4.70;;;;;;;14.15;100.00;101155.13;2084111;28;20048;-75
2023/05/01 03:40:27;;;;;;;;;;;;;;;14.12;100.00;101153.34;2105645;28;20078;-75
2023/05/01 03:42:25;;;;;;;7.13;3.90;;;;;;;14.14;100.00;101150.69;2080304;28;20153;-76
2023/05/01 03:43:52;;;;;;;7.32;4.30;;;;;;;14.15;100.00;101156.03;2087066;28;20048;-75
2023/05/01 03:45:40;;;;;;;8.65;3.67;;;;;;;14.16;100.00;101152.50;2105436;28;20130;-76
2023/05/01 03:47:03;;;;;;;8.70;3.65;;;;;;;14.17;100.00;101148.97;2100233;28;20085;-80
2023/05/01 03:48:25;;;;;;;7.72;3.75;;;;;;;14.19;100.00;101147.19;2090573;28;20521;-74
2023/05/01 03:49:47;;;;;;;4.90;3.42;;;;;;;14.20;100.00;101153.41;2090954;28;20049;-76
2023/05/01 03:51:10;;;;;;;8.55;4.00;;;;;;;14.20;100.00;101148.09;2098940;28;20051;-75
2023/05/01 03:52:33;;;;;;;9.32;4.40;;;;;;;14.23;100.00;101146.34;2093940;28;20037;-75
2023/05/01 03:53:57;;;;;;;10.07;5.60;;;;;;;14.27;100.00;101156.09;2090391;28;20040;-75
2023/05/01 03:55:20;;;;;;;10.15;6.75;;;;;;;14.30;100.00;101147.28;2092770;28;20051;-76
2023/05/01 03:56:43;;;;;;;11.65;6.60;;;;;;;14.31;100.00;101157.91;2092878;28;20527;-75
2023/05/01 03:58:06;;;;;;;9.20;5.28;;;;;;;14.30;100.00;101156.16;2083918;28;20056;-75
2023/05/01 03:59:28;;;;;;;8.07;4.13;;;;;;;14.33;100.00;101160.56;2090152;28;20070;-75
2023/05/01 04:00:50;;;;;;;6.80;4.55;;;;;;;14.35;100.00;101151.75;2099056;28;20042;-75
2023/05/01 04:02:12;;;;;;;9.70;4.50;;;;;;;14.36;100.00;101156.19;2097234;28;20040;-75
2023/05/01 04:03:34;;;;;;;7.57;4.95;;;;;;;14.39;100.00;101143.81;2086095;28;20474;-75
2023/05/01 04:04:56;;;;;;;9.07;4.88;;;;;;;14.41;100.00;101158.00;2091495;28;20505;-76
2023/05/01 04:06:19;;;;;;;10.90;4.30;;;;;;;14.41;100.00;101153.56;2094708;28;20577;-76
2023/05/01 04:07:42;;;;;;;8.55;4.18;;;;;;;14.43;100.00;101164.22;2094147;28;20052;-75
2023/05/01 04:09:07;;;;;;;6.95;4.07;;;;;;;14.44;100.00;101163.34;2102925;28;20055;-76
2023/05/01 04:10:29;;;;;;;13.10;4.88;;;;;;;14.46;100.00;101169.53;2100485;28;20086;-75
2023/05/01 04:11:57;;;;;;;8.32;5.90;;;;;;;14.48;100.00;101159.81;2104016;28;20051;-75
2023/05/01 04:13:19;;;;;;;11.55;7.47;;;;;;;14.50;100.00;101166.03;2097339;28;20507;-75
2023/05/01 04:14:42;;;;;;;10.68;8.20;;;;;;;14.50;100.00;101166.94;2107031;28;20093;-75
2023/05/01 04:16:05;;;;;;;13.80;7.20;;;;;;;14.50;100.00;101168.69;2088792;28;20083;-75
2023/05/01 04:17:28;;;;;;;13.52;8.23;;;;;;;14.51;100.00;101167.78;2092063;28;20550;-75
2023/05/01 04:18:49;;;;;;;15.00;7.38;;;;;;;14.52;100.00;101172.22;2094527;28;20075;-75
2023/05/01 04:20:12;;;;;;;15.20;7.97;;;;;;;14.56;100.00;101169.63;2094314;28;20071;-75
2023/05/01 04:21:34;;;;;;;11.10;7.15;;;;;;;14.60;100.00;101168.75;2085966;28;20041;-75
2023/05/01 04:22:57;;;;;;;9.20;4.85;;;;;;;14.63;100.00;101168.78;2094456;28;20540;-75
2023/05/01 04:24:21;;;;;;;10.40;5.57;;;;;;;14.67;100.00;101164.34;2086091;28;20063;-75
2023/05/01 04:25:43;;;;;;;8.27;4.13;;;;;;;14.68;100.00;101168.78;2086409;28;20109;-75
2023/05/01 04:27:10;;;;;;;6.90;4.32;;;;;;;14.68;100.00;101164.38;2091198;28;20055;-75
2023/05/01 04:28:32;;;;;;;9.75;4.25;;;;;;;14.69;100.00;101170.56;2094006;28;20488;-75
2023/05/01 04:29:55;;;;;;;7.88;4.10;;;;;;;14.70;100.00;101165.25;2100063;28;20127;-75
2023/05/01 04:31:18;;;;;;;8.25;3.55;;;;;;;14.71;100.00;101168.78;2090232;28;20043;-76
2023/05/01 04:32:40;;;;;;;8.90;3.60;;;;;;;14.71;100.00;101167.03;2098843;28;20051;-75
2023/05/01 04:34:03;;;;;;;6.30;3.30;;;;;;;14.74;100.00;101169.72;2093220;28;20044;-76
2023/05/01 04:35:25;;;;;;;9.07;3.78;;;;;;;14.77;100.00;101169.72;2098598;28;20040;-76
2023/05/01 04:36:47;;;;;;;8.35;4.10;;;;;;;14.83;100.00;101176.84;2093017;28;20120;-76
2023/05/01 04:38:10;;;;;;;7.32;4.68;;;;;;;14.88;100.00;101166.22;2089755;28;20049;-75
2023/05/01 04:39:34;;;;;;;8.15;4.80;;;;;;;14.94;100.00;101176.91;2093626;28;20056;-75
2023/05/01 04:40:56;;;;;;;8.30;4.25;;;;;;;14.97;100.00;101177.78;2089367;28;20434;-75
2023/05/01 04:42:17;;;;;;;9.68;3.80;;;;;;;14.99;100.00;101168.03;2095876;28;20543;-75
2023/05/01 04:43:43;;;;;;;11.82;5.03;;;;;;;15.03;100.00;101175.16;2101567;28;20044;-75
2023/05/01 04:45:07;;;;;;;8.98;4.45;;;;;;;15.04;100.00;101168.94;2098738;28;20048;-75
2023/05/01 04:46:32;;;;;;;11.68;7.40;;;;;;;15.08;100.00;101170.75;2103035;28;20036;-75
2023/05/01 04:47:54;;;;;;;11.60;6.82;;;;;;;15.08;100.00;101175.19;2094130;28;20860;-75
2023/05/01 04:49:17;;;;;;;10.88;4.68;;;;;;;15.09;100.00;101176.97;2089998;28;20366;-75
2023/05/01 04:50:38;;;;;;;10.25;4.78;;;;;;;15.08;100.00;101181.38;2093041;28;20101;-75
2023/05/01 04:52:00;;;;;;;8.73;4.10;;;;;;;15.08;100.00;101185.81;2091359;28;20397;-75
2023/05/01 04:53:33;;;;;;;8.90;4.50;;;;;;;15.06;100.00;101180.50;2105702;28;20047;-75
2023/05/01 04:54:57;;;;;;;8.20;4.30;;;;;;;15.10;100.00;101182.25;2091420;28;20050;-76
2023/05/01 04:56:22;;;;;;;8.18;4.10;;;;;;;15.13;100.00;101184.94;2091765;28;20127;-76
2023/05/01 04:57:48;;;;;;;8.90;3.92;;;;;;;15.16;100.00;101187.59;2090962;28;20127;-76
2023/05/01 04:59:09;;;;;;;8.60;4.47;;;;;;;15.21;100.00;101184.97;2091365;28;20076;-75
2023/05/01 05:00:32;;;;;;;8.10;4.53;;;;;;;15.25;100.00;101189.41;2089195;28;20036;-75
2023/05/01 05:01:56;;;;;;;8.15;3.88;;;;;;;15.29;100.00;101190.34;2090755;28;20044;-75
2023/05/01 05:03:18;;;;;;;6.10;3.47;;;;;;;15.32;100.00;101188.56;2091450;28;20671;-75
2023/05/01 05:04:41;;;;;;;7.43;4.30;;;;;;;15.35;100.00;101185.03;2093741;28;20048;-75
2023/05/01 05:06:04;;;;;;;7.50;3.85;;;;;;;15.38;100.00;101182.34;2099355;28;20044;-75
2023/05/01 05:07:26;;;;;;;8.52;4.00;;;;;;;15.42;100.00;101186.81;2096721;28;20155;-75
2023/05/01 05:09:07;;;;;;;8.60;4.22;;;;;;;15.42;100.00;101187.72;2100335;28;20076;-74
2023/05/01 05:10:31;;;;;;;9.90;4.05;;;;;;;15.45;100.00;101189.47;2093758;28;20496;-76
2023/05/01 05:12:25;;;;;;;8.50;4.15;;;;;;;15.46;100.00;101183.28;2098206;28;20052;-76
2023/05/01 05:13:46;;;;;;;10.32;4.70;;;;;;;15.48;100.00;101181.50;2103591;28;20070;-75
2023/05/01 05:15:10;;;;;;;10.25;4.22;;;;;;;15.49;100.00;101191.28;2092260;28;20492;-75
2023/05/01 05:16:31;;;;;;;10.27;4.97;;;;;;;15.48;100.00;101192.16;2085437;28;20049;-75
2023/05/01 05:17:54;;;;;;;8.65;3.78;;;;;;;15.47;100.00;101201.03;2091629;28;20169;-75
2023/05/01 05:19:16;;;;;;;11.13;4.00;;;;;;;15.47;100.00;101193.94;2095289;28;20063;-75
2023/05/01 05:20:39;;;;;;;11.40;3.55;;;;;;;15.48;100.00;101197.47;2091263;28;20424;-75
2023/05/01 05:22:02;;;;;;;9.68;3.25;;;;;;;15.48;100.00;101201.03;2102002;28;20127;-75
2023/05/01 05:23:27;;;;;;;6.18;3.22;;;;;;;15.48;100.00;101206.34;2093111;28;20492;-75
2023/05/01 05:24:53;;;;;;;9.25;3.65;;;;;;;15.48;100.00;101202.81;2087591;28;20067;-76
2023/05/01 05:26:18;;;;;;;8.88;3.10;;;;;;;15.49;100.00;101210.75;2099550;28;20404;-75
2023/05/01 05:27:39;;;;;;;6.93;3.17;;;;;;;15.51;100.00;101208.13;2102333;28;20172;-75
2023/05/01 05:29:01;;;;;;;7.93;4.15;;;;;;;15.55;100.00;101209.94;2092864;28;20092;-74
2023/05/01 05:30:24;;;;;;;8.50;4.32;;;;;;;15.58;100.00;101215.25;2092960;28;20583;-75
2023/05/01 05:31:48;;;;;;;9.57;4.60;;;;;;;15.62;100.00;101214.38;2104379;28;20074;-74
2023/05/01 05:33:12;;;;;;;10.60;4.65;;;;;;;15.65;100.00;101224.16;2102980;28;20134;-75
2023/05/01 05:34:33;;;;;;;8.02;4.40;;;;;;;15.69;100.00;101225.91;2105420;28;20575;-75
2023/05/01 05:35:56;;;;;;;9.63;4.55;;;;;;;15.73;100.00;101231.28;2104799;28;20048;-74
2023/05/01 05:37:23;;;;;;;9.82;4.70;;;;;;;15.78;100.00;101239.25;2093524;28;20070;-76
2023/05/01 05:38:47;;;;;;;10.05;4.05;;;;;;;15.82;100.00;101241.03;2083673;28;20079;-75
2023/05/01 05:40:13;;;;;;;8.38;4.20;;;;;;;15.85;100.00;101252.59;2093773;28;20037;-75
2023/05/01 05:41:48;;;;;;;9.68;3.90;;;;;;;15.89;100.00;101254.38;2086876;28;20037;-75
2023/05/01 05:43:09;;;;;;;7.63;4.00;;;;;;;15.94;100.00;101255.28;2099389;28;20048;-76
2023/05/01 05:44:34;;;;;;;8.68;3.95;;;;;;;15.97;100.00;101256.16;2102031;28;20522;-75
2023/05/01 05:45:58;;;;;;;10.15;3.67;;;;;;;15.98;100.00;101253.50;2096922;28;20041;-76
2023/05/01 05:47:20;;;;;;;7.13;3.83;;;;;;;15.99;100.00;101243.75;2089570;28;20044;-75
2023/05/01 05:48:42;;;;;;;8.35;3.88;;;;;;;15.98;100.00;101239.28;2095341;28;20494;-75
2023/05/01 05:50:07;;;;;;;8.02;4.05;;;;;;;15.95;100.00;101238.41;2088272;28;20057;-75
2023/05/01 05:51:30;;;;;;;11.02;4.03;;;;;;;15.92;100.00;101235.75;2087996;28;20037;-76
2023/05/01 05:52:54;;;;;;;13.13;4.00;;;;;;;15.87;100.00;101229.53;2101328;28;20047;-76
2023/05/01 05:54:17;;;;;;;7.00;3.47;;;;;;;15.86;100.00;101233.06;2098057;28;20322;-75
2023/05/01 05:55:42;;;;;;;6.82;3.40;;;;;;;15.85;100.00;101225.09;2093044;28;20045;-75
2023/05/01 05:57:06;;;;;;;8.38;3.33;;;;;;;15.84;100.00;101224.19;2091473;28;20132;-76
2023/05/01 05:58:29;;;;;;;9.93;3.80;;;;;;;15.83;100.00;101230.41;2097533;28;20102;-75
2023/05/01 05:59:51;;;;;;;8.18;3.55;;;;;;;15.83;100.00;101229.50;2095679;28;20063;-76
2023/05/01 06:01:17;;;;;;;6.45;3.20;;;;;;;15.82;100.00;101233.03;2093690;28;20053;-76
2023/05/01 06:02:40;;;;;;;6.38;3.28;;;;;;;15.81;100.00;101229.53;2094522;28;20057;-75
2023/05/01 06:04:03;;;;;;;5.68;2.72;;;;;;;15.83;100.00;101226.84;2095633;28;20041;-75
2023/05/01 06:05:26;;;;;;;8.45;3.20;;;;;;;15.84;100.00;101229.50;2108487;28;20461;-76
2023/05/01 06:06:49;;;;;;;7.47;2.97;;;;;;;15.87;100.00;101240.19;2097470;28;20102;-75
2023/05/01 06:08:11;;;;;;;8.93;3.20;;;;;;;15.93;100.00;101240.19;2094307;28;20056;-75
2023/05/01 06:09:33;;;;;;;6.88;3.00;;;;;;;16.00;100.00;101240.19;2100119;28;20146;-75
2023/05/01 06:10:57;;;;;;;6.85;3.17;;;;;;;16.06;100.00;101241.09;2095246;28;20140;-75
2023/05/01 06:12:20;;;;;;;6.53;2.78;;;;;;;16.15;100.00;101240.19;2092527;28;20161;-75
2023/05/01 06:13:43;;;;;;;7.28;3.33;;;;;;;16.25;100.00;101241.97;2108939;28;20051;-76
2023/05/01 06:15:05;;;;;;;8.05;3.45;;;;;;;16.35;100.00;101244.63;2106239;28;20051;-76
2023/05/01 06:16:29;;;;;;;7.78;3.38;;;;;;;16.46;100.00;101251.75;2095726;28;20491;-76
2023/05/01 06:17:50;;;;;;;9.02;3.75;;;;;;;16.56;100.00;101249.06;2095606;28;20048;-75
2023/05/01 06:19:12;;;;;;;8.98;3.85;;;;;;;16.66;100.00;101253.56;2095366;28;20048;-76
2023/05/01 06:20:35;;;;;;;6.90;3.55;;;;;;;16.76;100.00;101259.72;2096882;28;21331;-76
2023/05/01 06:21:57;;;;;;;;;;;;;;;16.81;100.00;101259.72;2102588;28;20109;-73
2023/05/01 06:23:19;;;;;;;6.65;3.53;;;;;;;16.85;100.00;101265.06;2105433;28;21104;-75
2023/05/01 06:25:00;;;;;;;7.78;3.53;;;;;;;16.90;100.00;101263.28;2097731;28;20047;-76
2023/05/01 06:26:25;;;;;;;9.10;3.60;;;;;;;16.95;100.00;101273.91;2087290;28;20045;-76
2023/05/01 06:27:48;;;;;;;9.15;3.03;;;;;;;16.99;100.00;101276.59;2088078;28;20044;-76
2023/05/01 06:29:11;;;;;;;7.30;3.33;;;;;;;17.04;100.00;101273.91;2101361;28;20051;-75